sensor_id;sensor_type;location;lat;lon;timestamp;temperature;humidity
51655;DHT22;37732;53.106;7.030;2022-07-31T00:01:49;18.70;99.90
51655;DHT22;37732;53.106;7.030;2022-07-31T00:04:16;18.70;99.90
51655;DHT22;37732;53.106;7.030;2022-07-31T00:06:42;18.70;99.90
51655;DHT22;37732;53.106;7.030;2022-07-31T00:09:09;18.70;99.90
51655;DHT22;37732;53.106;7.030;2022-07-31T00:11:35;18.60;99.90
51655;DHT22;37732;53.106;7.030;2022-07-31T00:14:00;18.60;99.90
51655;DHT22;37732;53.106;7.030;2022-07-31T00:16:26;18.60;99.90
51655;DHT22;37732;53.106;7.030;2022-07-31T00:18:52;18.60;99.90
51655;DHT22;37732;53.106;7.030;2022-07-31T00:21:17;18.60;99.90
51655;DHT22;37732;53.106;7.030;2022-07-31T00:23:43;18.60;99.90
51655;DHT22;37732;53.106;7.030;2022-07-31T00:26:09;18.60;99.90
51655;DHT22;37732;53.106;7.030;2022-07-31T00:28:35;18.60;99.90
51655;DHT22;37732;53.106;7.030;2022-07-31T00:31:01;18.60;99.90
51655;DHT22;37732;53.106;7.030;2022-07-31T00:33:27;18.60;99.90
51655;DHT22;37732;53.106;7.030;2022-07-31T00:35:52;18.60;99.90
51655;DHT22;37732;53.106;7.030;2022-07-31T00:38:18;18.60;99.90
51655;DHT22;37732;53.106;7.030;2022-07-31T00:40:45;18.60;99.90
51655;DHT22;37732;53.106;7.030;2022-07-31T00:43:13;18.60;99.90
51655;DHT22;37732;53.106;7.030;2022-07-31T00:45:39;18.60;99.90
51655;DHT22;37732;53.106;7.030;2022-07-31T00:48:05;18.50;99.90
51655;DHT22;37732;53.106;7.030;2022-07-31T00:50:31;18.50;99.90
51655;DHT22;37732;53.106;7.030;2022-07-31T00:52:56;18.50;99.90
51655;DHT22;37732;53.106;7.030;2022-07-31T00:55:22;18.50;99.90
51655;DHT22;37732;53.106;7.030;2022-07-31T00:57:48;18.40;99.90
51655;DHT22;37732;53.106;7.030;2022-07-31T01:00:14;18.50;99.90
51655;DHT22;37732;53.106;7.030;2022-07-31T01:02:40;18.40;99.90
51655;DHT22;37732;53.106;7.030;2022-07-31T01:05:05;18.40;99.90
51655;DHT22;37732;53.106;7.030;2022-07-31T01:07:31;18.30;99.90
51655;DHT22;37732;53.106;7.030;2022-07-31T01:09:58;18.30;99.90
51655;DHT22;37732;53.106;7.030;2022-07-31T01:12:37;18.30;99.90
51655;DHT22;37732;53.106;7.030;2022-07-31T01:15:07;18.30;99.90
51655;DHT22;37732;53.106;7.030;2022-07-31T01:17:35;18.30;99.90
51655;DHT22;37732;53.106;7.030;2022-07-31T01:20:01;18.30;99.90
51655;DHT22;37732;53.106;7.030;2022-07-31T01:31:29;18.20;99.90
51655;DHT22;37732;53.106;7.030;2022-07-31T01:37:04;18.10;99.90
51655;DHT22;37732;53.106;7.030;2022-07-31T01:39:32;18.10;99.90
51655;DHT22;37732;53.106;7.030;2022-07-31T01:42:02;18.10;99.90
51655;DHT22;37732;53.106;7.030;2022-07-31T01:44:30;18.00;99.90
51655;DHT22;37732;53.106;7.030;2022-07-31T01:46:56;18.00;99.90
51655;DHT22;37732;53.106;7.030;2022-07-31T01:49:24;18.00;99.90
51655;DHT22;37732;53.106;7.030;2022-07-31T01:51:51;18.00;99.90
51655;DHT22;37732;53.106;7.030;2022-07-31T01:54:17;18.00;99.90
51655;DHT22;37732;53.106;7.030;2022-07-31T01:56:45;18.00;99.90
51655;DHT22;37732;53.106;7.030;2022-07-31T01:59:12;18.00;99.90
51655;DHT22;37732;53.106;7.030;2022-07-31T02:01:39;17.90;99.90
51655;DHT22;37732;53.106;7.030;2022-07-31T02:04:07;17.80;99.90
51655;DHT22;37732;53.106;7.030;2022-07-31T02:06:34;17.80;99.90
51655;DHT22;37732;53.106;7.030;2022-07-31T02:09:01;17.80;99.90
51655;DHT22;37732;53.106;7.030;2022-07-31T02:11:27;17.70;99.90
51655;DHT22;37732;53.106;7.030;2022-07-31T02:13:53;17.70;99.90
51655;DHT22;37732;53.106;7.030;2022-07-31T02:16:20;17.60;99.90
51655;DHT22;37732;53.106;7.030;2022-07-31T02:18:48;17.60;99.90
51655;DHT22;37732;53.106;7.030;2022-07-31T02:21:15;17.60;99.90
51655;DHT22;37732;53.106;7.030;2022-07-31T02:23:41;17.60;99.90
51655;DHT22;37732;53.106;7.030;2022-07-31T02:26:07;17.50;99.90
51655;DHT22;37732;53.106;7.030;2022-07-31T02:28:35;17.40;99.90
51655;DHT22;37732;53.106;7.030;2022-07-31T02:31:03;17.40;99.90
51655;DHT22;37732;53.106;7.030;2022-07-31T02:33:30;17.40;99.90
51655;DHT22;37732;53.106;7.030;2022-07-31T02:35:57;17.40;99.90
51655;DHT22;37732;53.106;7.030;2022-07-31T02:38:25;17.40;99.90
51655;DHT22;37732;53.106;7.030;2022-07-31T02:40:54;17.40;99.90
51655;DHT22;37732;53.106;7.030;2022-07-31T02:43:21;17.40;99.90
51655;DHT22;37732;53.106;7.030;2022-07-31T02:45:47;17.40;99.90
51655;DHT22;37732;53.106;7.030;2022-07-31T02:48:13;17.40;99.90
51655;DHT22;37732;53.106;7.030;2022-07-31T02:50:39;17.40;99.90
51655;DHT22;37732;53.106;7.030;2022-07-31T02:53:05;17.40;99.90
51655;DHT22;37732;53.106;7.030;2022-07-31T02:55:32;17.40;99.90
51655;DHT22;37732;53.106;7.030;2022-07-31T02:57:58;17.40;99.90
51655;DHT22;37732;53.106;7.030;2022-07-31T03:00:23;17.40;99.90
51655;DHT22;37732;53.106;7.030;2022-07-31T03:02:54;17.40;99.90
51655;DHT22;37732;53.106;7.030;2022-07-31T03:05:20;17.40;99.90
51655;DHT22;37732;53.106;7.030;2022-07-31T03:07:46;17.40;99.90
51655;DHT22;37732;53.106;7.030;2022-07-31T03:10:12;17.40;99.90
51655;DHT22;37732;53.106;7.030;2022-07-31T03:12:46;17.40;99.90
51655;DHT22;37732;53.106;7.030;2022-07-31T03:15:14;17.40;99.90
51655;DHT22;37732;53.106;7.030;2022-07-31T03:17:42;17.30;99.90
51655;DHT22;37732;53.106;7.030;2022-07-31T03:20:09;17.30;99.90
51655;DHT22;37732;53.106;7.030;2022-07-31T03:22:35;17.30;99.90
51655;DHT22;37732;53.106;7.030;2022-07-31T03:25:02;17.30;99.90
51655;DHT22;37732;53.106;7.030;2022-07-31T03:27:28;17.30;99.90
51655;DHT22;37732;53.106;7.030;2022-07-31T03:29:54;17.30;99.90
51655;DHT22;37732;53.106;7.030;2022-07-31T03:32:20;17.30;99.90
51655;DHT22;37732;53.106;7.030;2022-07-31T03:34:46;17.30;99.90
51655;DHT22;37732;53.106;7.030;2022-07-31T03:37:12;17.30;99.90
51655;DHT22;37732;53.106;7.030;2022-07-31T03:39:39;17.20;99.90
51655;DHT22;37732;53.106;7.030;2022-07-31T03:42:07;17.20;99.90
51655;DHT22;37732;53.106;7.030;2022-07-31T03:44:34;17.20;99.90
51655;DHT22;37732;53.106;7.030;2022-07-31T03:47:01;17.20;99.90
51655;DHT22;37732;53.106;7.030;2022-07-31T03:49:26;17.20;99.90
51655;DHT22;37732;53.106;7.030;2022-07-31T03:51:53;17.10;99.90
51655;DHT22;37732;53.106;7.030;2022-07-31T03:54:19;17.10;99.90
51655;DHT22;37732;53.106;7.030;2022-07-31T03:56:47;17.10;99.90
51655;DHT22;37732;53.106;7.030;2022-07-31T03:59:15;17.10;99.90
51655;DHT22;37732;53.106;7.030;2022-07-31T04:01:41;17.10;99.90
51655;DHT22;37732;53.106;7.030;2022-07-31T04:04:08;17.10;99.90
51655;DHT22;37732;53.106;7.030;2022-07-31T04:06:33;17.10;99.90
51655;DHT22;37732;53.106;7.030;2022-07-31T04:08:59;17.00;99.90
51655;DHT22;37732;53.106;7.030;2022-07-31T04:11:28;17.00;99.90
51655;DHT22;37732;53.106;7.030;2022-07-31T04:13:54;17.00;99.90
51655;DHT22;37732;53.106;7.030;2022-07-31T04:16:20;17.00;99.90
51655;DHT22;37732;53.106;7.030;2022-07-31T04:18:45;17.10;99.90
51655;DHT22;37732;53.106;7.030;2022-07-31T04:21:12;17.10;99.90
51655;DHT22;37732;53.106;7.030;2022-07-31T04:23:37;17.10;99.90
51655;DHT22;37732;53.106;7.030;2022-07-31T04:26:03;17.10;99.90
51655;DHT22;37732;53.106;7.030;2022-07-31T04:28:29;17.10;99.90
51655;DHT22;37732;53.106;7.030;2022-07-31T04:30:55;17.10;99.90
51655;DHT22;37732;53.106;7.030;2022-07-31T04:33:20;17.10;99.90
51655;DHT22;37732;53.106;7.030;2022-07-31T04:35:46;17.10;99.90
51655;DHT22;37732;53.106;7.030;2022-07-31T04:38:12;17.20;99.90
51655;DHT22;37732;53.106;7.030;2022-07-31T04:40:39;17.10;99.90
51655;DHT22;37732;53.106;7.030;2022-07-31T04:43:04;17.20;99.90
51655;DHT22;37732;53.106;7.030;2022-07-31T04:45:30;17.20;99.90
51655;DHT22;37732;53.106;7.030;2022-07-31T04:47:56;17.20;99.90
51655;DHT22;37732;53.106;7.030;2022-07-31T04:50:21;17.20;99.90
51655;DHT22;37732;53.106;7.030;2022-07-31T04:52:47;17.20;99.90
51655;DHT22;37732;53.106;7.030;2022-07-31T04:55:13;17.30;99.90
51655;DHT22;37732;53.106;7.030;2022-07-31T04:57:38;17.30;99.90
51655;DHT22;37732;53.106;7.030;2022-07-31T05:00:07;17.40;99.90
51655;DHT22;37732;53.106;7.030;2022-07-31T05:02:35;17.40;99.90
51655;DHT22;37732;53.106;7.030;2022-07-31T05:05:00;17.50;99.90
51655;DHT22;37732;53.106;7.030;2022-07-31T05:07:26;17.60;99.90
51655;DHT22;37732;53.106;7.030;2022-07-31T05:09:52;17.70;99.90
51655;DHT22;37732;53.106;7.030;2022-07-31T05:12:18;17.80;99.90
51655;DHT22;37732;53.106;7.030;2022-07-31T05:14:44;17.80;99.90
51655;DHT22;37732;53.106;7.030;2022-07-31T05:17:10;17.90;99.90
51655;DHT22;37732;53.106;7.030;2022-07-31T05:19:35;18.00;99.90
51655;DHT22;37732;53.106;7.030;2022-07-31T05:22:01;18.00;99.90
51655;DHT22;37732;53.106;7.030;2022-07-31T05:24:29;18.10;99.90
51655;DHT22;37732;53.106;7.030;2022-07-31T05:26:55;18.20;99.90
51655;DHT22;37732;53.106;7.030;2022-07-31T05:29:21;18.20;99.90
51655;DHT22;37732;53.106;7.030;2022-07-31T05:31:47;18.30;99.90
51655;DHT22;37732;53.106;7.030;2022-07-31T05:34:13;18.40;99.90
51655;DHT22;37732;53.106;7.030;2022-07-31T05:36:38;18.40;99.90
51655;DHT22;37732;53.106;7.030;2022-07-31T05:39:04;18.50;99.90
51655;DHT22;37732;53.106;7.030;2022-07-31T05:41:30;18.60;99.90
51655;DHT22;37732;53.106;7.030;2022-07-31T05:43:58;18.60;99.90
51655;DHT22;37732;53.106;7.030;2022-07-31T05:46:24;18.70;99.90
51655;DHT22;37732;53.106;7.030;2022-07-31T05:48:50;18.80;99.90
51655;DHT22;37732;53.106;7.030;2022-07-31T05:51:15;18.90;99.90
51655;DHT22;37732;53.106;7.030;2022-07-31T05:53:41;18.90;99.90
51655;DHT22;37732;53.106;7.030;2022-07-31T05:56:07;19.00;99.90
51655;DHT22;37732;53.106;7.030;2022-07-31T05:58:33;19.10;99.90
51655;DHT22;37732;53.106;7.030;2022-07-31T06:00:59;19.20;99.90
51655;DHT22;37732;53.106;7.030;2022-07-31T06:03:25;19.20;99.90
51655;DHT22;37732;53.106;7.030;2022-07-31T06:05:56;19.30;99.90
51655;DHT22;37732;53.106;7.030;2022-07-31T06:08:21;19.30;99.90
51655;DHT22;37732;53.106;7.030;2022-07-31T06:10:47;19.40;99.90
51655;DHT22;37732;53.106;7.030;2022-07-31T06:13:13;19.40;99.90
51655;DHT22;37732;53.106;7.030;2022-07-31T06:15:42;19.40;99.90
51655;DHT22;37732;53.106;7.030;2022-07-31T06:18:08;19.40;99.90
51655;DHT22;37732;53.106;7.030;2022-07-31T06:20:33;19.40;99.90
51655;DHT22;37732;53.106;7.030;2022-07-31T06:22:59;19.30;99.90
51655;DHT22;37732;53.106;7.030;2022-07-31T06:25:25;19.30;99.90
51655;DHT22;37732;53.106;7.030;2022-07-31T06:27:51;19.30;99.90
51655;DHT22;37732;53.106;7.030;2022-07-31T06:30:16;19.30;99.90
51655;DHT22;37732;53.106;7.030;2022-07-31T06:32:42;19.30;99.90
51655;DHT22;37732;53.106;7.030;2022-07-31T06:35:08;19.30;99.90
51655;DHT22;37732;53.106;7.030;2022-07-31T06:37:35;19.40;99.90
51655;DHT22;37732;53.106;7.030;2022-07-31T06:40:01;19.40;99.90
51655;DHT22;37732;53.106;7.030;2022-07-31T06:42:27;19.50;99.90
51655;DHT22;37732;53.106;7.030;2022-07-31T06:44:53;19.60;99.90
51655;DHT22;37732;53.106;7.030;2022-07-31T06:47:22;19.60;99.90
51655;DHT22;37732;53.106;7.030;2022-07-31T06:49:48;19.70;99.90
51655;DHT22;37732;53.106;7.030;2022-07-31T06:52:14;19.80;99.90
51655;DHT22;37732;53.106;7.030;2022-07-31T06:54:40;19.80;99.90
51655;DHT22;37732;53.106;7.030;2022-07-31T06:57:07;19.80;99.90
51655;DHT22;37732;53.106;7.030;2022-07-31T06:59:32;19.90;99.90
51655;DHT22;37732;53.106;7.030;2022-07-31T07:01:58;20.00;99.90
51655;DHT22;37732;53.106;7.030;2022-07-31T07:04:24;20.00;99.90
51655;DHT22;37732;53.106;7.030;2022-07-31T07:06:49;20.00;99.90
51655;DHT22;37732;53.106;7.030;2022-07-31T07:09:15;20.10;99.90
51655;DHT22;37732;53.106;7.030;2022-07-31T07:11:40;20.20;99.90
51655;DHT22;37732;53.106;7.030;2022-07-31T07:14:06;20.30;99.90
51655;DHT22;37732;53.106;7.030;2022-07-31T07:16:32;20.30;99.90
51655;DHT22;37732;53.106;7.030;2022-07-31T07:18:57;20.40;99.90
51655;DHT22;37732;53.106;7.030;2022-07-31T07:21:23;20.50;99.90
51655;DHT22;37732;53.106;7.030;2022-07-31T07:23:48;20.50;99.90
51655;DHT22;37732;53.106;7.030;2022-07-31T07:26:14;20.50;99.90
51655;DHT22;37732;53.106;7.030;2022-07-31T07:28:40;20.50;99.90
51655;DHT22;37732;53.106;7.030;2022-07-31T07:31:05;20.50;99.90
51655;DHT22;37732;53.106;7.030;2022-07-31T07:33:31;20.60;99.90
51655;DHT22;37732;53.106;7.030;2022-07-31T07:35:57;20.60;99.90
51655;DHT22;37732;53.106;7.030;2022-07-31T07:38:23;20.60;99.90
51655;DHT22;37732;53.106;7.030;2022-07-31T07:40:49;20.60;99.90
51655;DHT22;37732;53.106;7.030;2022-07-31T07:43:14;20.60;99.90
51655;DHT22;37732;53.106;7.030;2022-07-31T07:45:40;20.60;99.90
51655;DHT22;37732;53.106;7.030;2022-07-31T07:48:06;20.70;99.90
51655;DHT22;37732;53.106;7.030;2022-07-31T07:50:32;20.70;99.90
51655;DHT22;37732;53.106;7.030;2022-07-31T07:52:57;20.80;99.90
51655;DHT22;37732;53.106;7.030;2022-07-31T07:55:23;20.80;99.90
51655;DHT22;37732;53.106;7.030;2022-07-31T07:57:49;20.90;99.90
51655;DHT22;37732;53.106;7.030;2022-07-31T08:00:14;20.90;99.90
51655;DHT22;37732;53.106;7.030;2022-07-31T08:02:41;21.00;99.90
51655;DHT22;37732;53.106;7.030;2022-07-31T08:05:09;21.00;99.90
51655;DHT22;37732;53.106;7.030;2022-07-31T08:07:36;21.10;99.90
51655;DHT22;37732;53.106;7.030;2022-07-31T08:10:05;21.10;99.90
51655;DHT22;37732;53.106;7.030;2022-07-31T08:12:31;21.10;99.90
51655;DHT22;37732;53.106;7.030;2022-07-31T08:14:57;21.20;99.90
51655;DHT22;37732;53.106;7.030;2022-07-31T08:17:22;21.20;99.90
51655;DHT22;37732;53.106;7.030;2022-07-31T08:19:48;21.20;99.90
51655;DHT22;37732;53.106;7.030;2022-07-31T08:22:13;21.20;99.90
51655;DHT22;37732;53.106;7.030;2022-07-31T08:24:39;21.20;99.90
51655;DHT22;37732;53.106;7.030;2022-07-31T08:27:05;21.30;99.90
51655;DHT22;37732;53.106;7.030;2022-07-31T08:29:53;21.40;99.90
51655;DHT22;37732;53.106;7.030;2022-07-31T08:32:20;21.50;99.90
51655;DHT22;37732;53.106;7.030;2022-07-31T08:34:46;21.50;99.90
51655;DHT22;37732;53.106;7.030;2022-07-31T08:37:11;21.60;99.90
51655;DHT22;37732;53.106;7.030;2022-07-31T08:39:38;21.70;99.90
51655;DHT22;37732;53.106;7.030;2022-07-31T08:42:08;21.90;99.90
51655;DHT22;37732;53.106;7.030;2022-07-31T08:44:36;22.10;99.90
51655;DHT22;37732;53.106;7.030;2022-07-31T08:47:04;22.30;99.90
51655;DHT22;37732;53.106;7.030;2022-07-31T08:49:32;22.50;99.90
51655;DHT22;37732;53.106;7.030;2022-07-31T08:51:58;22.60;99.90
51655;DHT22;37732;53.106;7.030;2022-07-31T08:54:26;22.70;99.90
51655;DHT22;37732;53.106;7.030;2022-07-31T08:56:52;22.90;99.90
51655;DHT22;37732;53.106;7.030;2022-07-31T08:59:18;23.00;99.90
51655;DHT22;37732;53.106;7.030;2022-07-31T09:01:44;23.10;99.90
51655;DHT22;37732;53.106;7.030;2022-07-31T09:04:10;23.20;99.90
51655;DHT22;37732;53.106;7.030;2022-07-31T09:06:37;23.40;99.90
51655;DHT22;37732;53.106;7.030;2022-07-31T09:09:04;23.60;99.90
51655;DHT22;37732;53.106;7.030;2022-07-31T09:11:30;23.60;99.90
51655;DHT22;37732;53.106;7.030;2022-07-31T09:13:57;23.50;99.90
51655;DHT22;37732;53.106;7.030;2022-07-31T09:16:23;23.30;99.90
51655;DHT22;37732;53.106;7.030;2022-07-31T09:19:04;23.20;99.90
51655;DHT22;37732;53.106;7.030;2022-07-31T09:21:42;23.00;99.90
51655;DHT22;37732;53.106;7.030;2022-07-31T09:24:10;22.90;99.90
51655;DHT22;37732;53.106;7.030;2022-07-31T09:26:37;22.80;99.90
51655;DHT22;37732;53.106;7.030;2022-07-31T09:29:06;22.70;99.90
51655;DHT22;37732;53.106;7.030;2022-07-31T09:31:38;22.60;99.90
51655;DHT22;37732;53.106;7.030;2022-07-31T09:34:04;22.50;99.90
51655;DHT22;37732;53.106;7.030;2022-07-31T09:36:33;22.30;99.90
51655;DHT22;37732;53.106;7.030;2022-07-31T09:38:59;22.20;99.90
51655;DHT22;37732;53.106;7.030;2022-07-31T09:41:25;22.00;99.90
51655;DHT22;37732;53.106;7.030;2022-07-31T09:43:58;21.90;99.90
51655;DHT22;37732;53.106;7.030;2022-07-31T09:46:26;21.80;99.90
51655;DHT22;37732;53.106;7.030;2022-07-31T09:48:54;21.70;99.90
51655;DHT22;37732;53.106;7.030;2022-07-31T09:51:21;21.70;99.90
51655;DHT22;37732;53.106;7.030;2022-07-31T09:53:50;21.70;99.90
51655;DHT22;37732;53.106;7.030;2022-07-31T09:56:33;21.70;99.90
51655;DHT22;37732;53.106;7.030;2022-07-31T09:59:00;21.70;99.90
51655;DHT22;37732;53.106;7.030;2022-07-31T10:01:26;21.80;99.90
51655;DHT22;37732;53.106;7.030;2022-07-31T10:03:53;21.90;99.90
51655;DHT22;37732;53.106;7.030;2022-07-31T10:06:22;21.90;99.90
51655;DHT22;37732;53.106;7.030;2022-07-31T10:08:50;21.80;99.90
51655;DHT22;37732;53.106;7.030;2022-07-31T10:11:21;21.70;99.90
51655;DHT22;37732;53.106;7.030;2022-07-31T10:13:48;21.60;99.90
51655;DHT22;37732;53.106;7.030;2022-07-31T10:16:16;21.60;99.90
51655;DHT22;37732;53.106;7.030;2022-07-31T10:18:46;21.50;99.90
51655;DHT22;37732;53.106;7.030;2022-07-31T10:21:16;21.40;99.90
51655;DHT22;37732;53.106;7.030;2022-07-31T10:23:43;21.40;99.90
51655;DHT22;37732;53.106;7.030;2022-07-31T10:26:09;21.30;99.90
51655;DHT22;37732;53.106;7.030;2022-07-31T10:28:36;21.20;99.90
51655;DHT22;37732;53.106;7.030;2022-07-31T10:31:03;21.00;99.90
51655;DHT22;37732;53.106;7.030;2022-07-31T10:33:29;20.90;99.90
51655;DHT22;37732;53.106;7.030;2022-07-31T10:36:05;20.80;99.90
51655;DHT22;37732;53.106;7.030;2022-07-31T10:38:47;20.80;99.90
51655;DHT22;37732;53.106;7.030;2022-07-31T10:41:33;20.70;99.90
51655;DHT22;37732;53.106;7.030;2022-07-31T10:44:15;20.70;99.90
51655;DHT22;37732;53.106;7.030;2022-07-31T10:46:41;20.60;99.90
51655;DHT22;37732;53.106;7.030;2022-07-31T10:49:07;20.60;99.90
51655;DHT22;37732;53.106;7.030;2022-07-31T10:51:32;20.70;99.90
51655;DHT22;37732;53.106;7.030;2022-07-31T10:54:02;20.70;99.90
51655;DHT22;37732;53.106;7.030;2022-07-31T10:56:39;20.80;99.90
51655;DHT22;37732;53.106;7.030;2022-07-31T10:59:07;21.00;99.90
51655;DHT22;37732;53.106;7.030;2022-07-31T11:01:32;21.00;99.90
51655;DHT22;37732;53.106;7.030;2022-07-31T11:04:00;21.10;99.90
51655;DHT22;37732;53.106;7.030;2022-07-31T11:06:37;21.30;99.90
51655;DHT22;37732;53.106;7.030;2022-07-31T11:09:03;21.40;99.90
51655;DHT22;37732;53.106;7.030;2022-07-31T11:11:33;21.30;99.90
51655;DHT22;37732;53.106;7.030;2022-07-31T11:13:59;21.40;99.90
51655;DHT22;37732;53.106;7.030;2022-07-31T11:16:26;21.40;99.90
51655;DHT22;37732;53.106;7.030;2022-07-31T11:19:06;21.40;99.90
51655;DHT22;37732;53.106;7.030;2022-07-31T11:21:40;21.50;99.90
51655;DHT22;37732;53.106;7.030;2022-07-31T11:24:21;21.50;99.90
51655;DHT22;37732;53.106;7.030;2022-07-31T11:26:55;21.40;99.90
51655;DHT22;37732;53.106;7.030;2022-07-31T11:32:12;21.30;99.90
51655;DHT22;37732;53.106;7.030;2022-07-31T11:34:51;21.20;99.90
51655;DHT22;37732;53.106;7.030;2022-07-31T11:37:26;21.20;99.90
51655;DHT22;37732;53.106;7.030;2022-07-31T11:39:53;21.10;99.90
51655;DHT22;37732;53.106;7.030;2022-07-31T11:42:21;21.10;99.90
51655;DHT22;37732;53.106;7.030;2022-07-31T11:44:47;21.10;99.90
51655;DHT22;37732;53.106;7.030;2022-07-31T11:47:13;21.10;99.90
51655;DHT22;37732;53.106;7.030;2022-07-31T11:49:39;21.20;99.90
51655;DHT22;37732;53.106;7.030;2022-07-31T11:52:07;21.20;99.90
51655;DHT22;37732;53.106;7.030;2022-07-31T11:54:33;21.20;99.90
51655;DHT22;37732;53.106;7.030;2022-07-31T11:56:59;21.20;99.90
51655;DHT22;37732;53.106;7.030;2022-07-31T11:59:33;21.20;99.90
51655;DHT22;37732;53.106;7.030;2022-07-31T12:02:06;21.20;99.90
51655;DHT22;37732;53.106;7.030;2022-07-31T12:04:33;21.20;99.90
51655;DHT22;37732;53.106;7.030;2022-07-31T12:07:01;21.10;99.90
51655;DHT22;37732;53.106;7.030;2022-07-31T12:09:26;21.00;99.90
51655;DHT22;37732;53.106;7.030;2022-07-31T12:11:53;20.90;99.90
51655;DHT22;37732;53.106;7.030;2022-07-31T12:14:36;20.80;99.90
51655;DHT22;37732;53.106;7.030;2022-07-31T12:17:06;20.80;99.90
51655;DHT22;37732;53.106;7.030;2022-07-31T12:19:34;20.80;99.90
51655;DHT22;37732;53.106;7.030;2022-07-31T12:22:11;20.70;99.90
51655;DHT22;37732;53.106;7.030;2022-07-31T12:24:37;20.70;99.90
51655;DHT22;37732;53.106;7.030;2022-07-31T12:27:05;20.70;99.90
51655;DHT22;37732;53.106;7.030;2022-07-31T12:29:32;20.80;99.90
51655;DHT22;37732;53.106;7.030;2022-07-31T12:31:58;20.70;99.90
51655;DHT22;37732;53.106;7.030;2022-07-31T12:34:25;20.70;99.90
51655;DHT22;37732;53.106;7.030;2022-07-31T12:37:07;20.70;99.90
51655;DHT22;37732;53.106;7.030;2022-07-31T12:39:56;20.70;99.90
51655;DHT22;37732;53.106;7.030;2022-07-31T12:42:21;20.60;99.90
51655;DHT22;37732;53.106;7.030;2022-07-31T12:44:51;20.60;99.90
51655;DHT22;37732;53.106;7.030;2022-07-31T12:47:28;20.50;99.90
51655;DHT22;37732;53.106;7.030;2022-07-31T12:49:55;20.50;99.90
51655;DHT22;37732;53.106;7.030;2022-07-31T12:52:21;20.40;99.90
51655;DHT22;37732;53.106;7.030;2022-07-31T12:54:48;20.40;99.90
51655;DHT22;37732;53.106;7.030;2022-07-31T12:57:14;20.20;99.90
51655;DHT22;37732;53.106;7.030;2022-07-31T12:59:41;20.10;99.90
51655;DHT22;37732;53.106;7.030;2022-07-31T13:02:07;20.00;99.90
51655;DHT22;37732;53.106;7.030;2022-07-31T13:04:33;19.90;99.90
51655;DHT22;37732;53.106;7.030;2022-07-31T13:06:59;19.70;99.90
51655;DHT22;37732;53.106;7.030;2022-07-31T13:09:25;19.60;99.90
51655;DHT22;37732;53.106;7.030;2022-07-31T13:11:51;19.50;99.90
51655;DHT22;37732;53.106;7.030;2022-07-31T13:14:17;19.50;99.90
51655;DHT22;37732;53.106;7.030;2022-07-31T13:16:44;19.40;99.90
51655;DHT22;37732;53.106;7.030;2022-07-31T13:19:10;19.50;99.90
51655;DHT22;37732;53.106;7.030;2022-07-31T13:21:37;19.40;99.90
51655;DHT22;37732;53.106;7.030;2022-07-31T13:24:03;19.50;99.90
51655;DHT22;37732;53.106;7.030;2022-07-31T13:26:31;19.50;99.90
51655;DHT22;37732;53.106;7.030;2022-07-31T13:28:57;19.60;99.90
51655;DHT22;37732;53.106;7.030;2022-07-31T13:31:23;19.70;99.90
51655;DHT22;37732;53.106;7.030;2022-07-31T13:33:49;19.70;99.90
51655;DHT22;37732;53.106;7.030;2022-07-31T13:36:14;19.80;99.90
51655;DHT22;37732;53.106;7.030;2022-07-31T13:38:40;19.90;99.90
51655;DHT22;37732;53.106;7.030;2022-07-31T13:41:06;20.00;99.90
51655;DHT22;37732;53.106;7.030;2022-07-31T13:43:53;20.00;99.90
51655;DHT22;37732;53.106;7.030;2022-07-31T13:46:20;19.90;99.90
51655;DHT22;37732;53.106;7.030;2022-07-31T13:48:46;20.00;99.90
51655;DHT22;37732;53.106;7.030;2022-07-31T13:51:12;20.00;99.90
51655;DHT22;37732;53.106;7.030;2022-07-31T13:53:37;19.90;99.90
51655;DHT22;37732;53.106;7.030;2022-07-31T13:56:03;19.90;99.90
51655;DHT22;37732;53.106;7.030;2022-07-31T13:58:29;19.80;99.90
51655;DHT22;37732;53.106;7.030;2022-07-31T14:00:55;19.80;99.90
51655;DHT22;37732;53.106;7.030;2022-07-31T14:03:22;19.70;99.90
51655;DHT22;37732;53.106;7.030;2022-07-31T14:05:48;19.70;99.90
51655;DHT22;37732;53.106;7.030;2022-07-31T14:08:14;19.70;99.90
51655;DHT22;37732;53.106;7.030;2022-07-31T14:10:40;19.70;99.90
51655;DHT22;37732;53.106;7.030;2022-07-31T14:13:06;19.60;99.90
51655;DHT22;37732;53.106;7.030;2022-07-31T14:15:31;19.60;99.90
51655;DHT22;37732;53.106;7.030;2022-07-31T14:17:57;19.50;99.90
51655;DHT22;37732;53.106;7.030;2022-07-31T14:20:23;19.50;99.90
51655;DHT22;37732;53.106;7.030;2022-07-31T14:22:49;19.50;99.90
51655;DHT22;37732;53.106;7.030;2022-07-31T14:25:15;19.50;99.90
51655;DHT22;37732;53.106;7.030;2022-07-31T14:27:41;19.50;99.90
51655;DHT22;37732;53.106;7.030;2022-07-31T14:30:09;19.50;99.90
51655;DHT22;37732;53.106;7.030;2022-07-31T14:32:35;19.50;99.90
51655;DHT22;37732;53.106;7.030;2022-07-31T14:35:01;19.50;99.90
51655;DHT22;37732;53.106;7.030;2022-07-31T14:37:26;19.40;99.90
51655;DHT22;37732;53.106;7.030;2022-07-31T14:39:52;19.50;99.90
51655;DHT22;37732;53.106;7.030;2022-07-31T14:42:18;19.40;99.90
51655;DHT22;37732;53.106;7.030;2022-07-31T14:44:45;19.40;99.90
51655;DHT22;37732;53.106;7.030;2022-07-31T14:47:11;19.50;99.90
51655;DHT22;37732;53.106;7.030;2022-07-31T14:49:38;19.60;99.90
51655;DHT22;37732;53.106;7.030;2022-07-31T14:52:04;19.70;99.90
51655;DHT22;37732;53.106;7.030;2022-07-31T14:54:30;19.90;99.90
51655;DHT22;37732;53.106;7.030;2022-07-31T14:56:57;20.00;99.90
51655;DHT22;37732;53.106;7.030;2022-07-31T14:59:26;20.10;99.90
51655;DHT22;37732;53.106;7.030;2022-07-31T15:01:52;20.20;99.90
51655;DHT22;37732;53.106;7.030;2022-07-31T15:04:17;20.20;99.90
51655;DHT22;37732;53.106;7.030;2022-07-31T15:06:43;20.30;99.90
51655;DHT22;37732;53.106;7.030;2022-07-31T15:09:08;20.40;99.90
51655;DHT22;37732;53.106;7.030;2022-07-31T15:11:34;20.50;99.90
51655;DHT22;37732;53.106;7.030;2022-07-31T15:14:00;20.60;99.90
51655;DHT22;37732;53.106;7.030;2022-07-31T15:16:25;20.60;99.90
51655;DHT22;37732;53.106;7.030;2022-07-31T15:18:52;20.70;99.90
51655;DHT22;37732;53.106;7.030;2022-07-31T15:21:18;20.80;99.90
51655;DHT22;37732;53.106;7.030;2022-07-31T15:23:44;20.80;99.90
51655;DHT22;37732;53.106;7.030;2022-07-31T15:26:09;20.90;99.90
51655;DHT22;37732;53.106;7.030;2022-07-31T15:28:35;20.90;99.90
51655;DHT22;37732;53.106;7.030;2022-07-31T15:31:01;20.80;99.90
51655;DHT22;37732;53.106;7.030;2022-07-31T15:33:26;20.80;99.90
51655;DHT22;37732;53.106;7.030;2022-07-31T15:35:53;20.80;99.90
51655;DHT22;37732;53.106;7.030;2022-07-31T15:38:19;20.70;99.90
51655;DHT22;37732;53.106;7.030;2022-07-31T15:40:44;20.60;99.90
51655;DHT22;37732;53.106;7.030;2022-07-31T15:43:12;20.60;99.90
51655;DHT22;37732;53.106;7.030;2022-07-31T15:45:38;20.60;99.90